GMT,Max TemperatureF,Mean TemperatureF,Min TemperatureF,Max Dew PointF,MeanDew PointF,Min DewpointF,Max Humidity, Mean Humidity, Min Humidity, Max Sea Level PressureIn, Mean Sea Level PressureIn, Min Sea Level PressureIn, Max VisibilityMiles, Mean VisibilityMiles, Min VisibilityMiles, Max Wind SpeedMPH, Mean Wind SpeedMPH, Max Gust SpeedMPH,PrecipitationIn, CloudCover, Events, WindDirDegrees
2013-11-1,52,44,37,43,40,33,100,82,60,29.78,29.69,29.59,19,7,6,15,10,,0.00,4,Rain,244
2013-11-2,52,42,33,45,39,34,100,83,67,29.60,29.23,28.94,19,7,6,34,14,52,0.08,4,Rain,222
2013-11-3,49,43,37,41,38,34,93,83,62,29.49,29.39,29.27,16,6,6,23,17,40,0.01,3,Rain,273
2013-11-4,48,40,31,41,35,30,100,84,66,29.45,29.37,29.27,6,6,6,16,10,,0.00,4,Rain,263
2013-11-5,49,45,41,45,42,37,100,85,70,29.42,29.30,29.18,19,7,6,28,16,40,0.00,6,Rain,254
2013-11-6,48,44,41,46,43,39,93,91,83,29.53,29.42,29.36,19,7,4,15,11,,0.08,6,Rain,241
2013-11-7,50,44,38,41,39,36,93,80,57,29.62,29.57,29.53,19,7,6,26,14,38,0.04,3,Rain,230
2013-11-8,48,42,37,41,37,34,93,81,69,29.64,29.59,29.56,19,7,6,16,12,,0.01,3,Rain,242
2013-11-9,45,40,36,39,37,34,100,85,68,29.71,29.61,29.56,19,7,6,18,14,,0.00,4,Rain,250
2013-11-10,51,42,33,48,38,34,100,86,62,30.10,29.97,29.71,16,7,6,18,10,,0.20,4,Rain,219
2013-11-11,57,50,44,55,51,46,100,90,78,30.15,30.00,29.86,19,7,2,24,14,,0.00,6,Rain,242
2013-11-12,50,46,41,45,41,37,100,84,66,30.54,30.34,30.15,19,7,6,17,12,,0.00,2,,259
2013-11-13,50,44,39,46,40,36,93,81,58,30.55,30.30,30.06,19,7,6,26,13,36,0.03,5,Rain,226
2013-11-14,47,44,41,41,39,37,93,80,65,30.60,30.38,30.12,19,7,6,25,19,25,0.00,4,Rain,282
2013-11-15,50,46,43,45,42,39,87,80,74,30.61,30.54,30.51,19,7,6,15,10,,0.00,7,,255
2013-11-16,51,50,48,48,45,43,100,84,72,30.51,30.42,30.36,19,7,6,15,10,,0.00,6,,243
2013-11-17,54,51,48,52,49,48,100,94,87,30.40,30.19,29.95,19,5,1,12,8,,0.04,6,Rain,209
2013-11-18,47,41,35,50,39,32,100,91,76,29.96,29.91,29.89,19,7,5,17,11,,0.00,4,Rain,287
2013-11-19,41,36,31,37,32,30,100,85,70,30.14,30.04,29.95,19,7,6,23,15,,0.00,3,,268
2013-11-20,44,40,37,43,37,30,93,80,60,29.94,29.75,29.68,19,7,5,30,23,48,0.12,4,Rain,294
2013-11-21,40,36,32,32,31,28,93,75,59,30.12,29.97,29.83,19,6,6,24,16,32,0.00,5,,335
2013-11-22,43,36,28,36,31,27,100,87,71,30.30,30.22,30.12,19,7,6,10,7,,0.00,3,Rain,300
2013-11-23,44,35,26,41,36,27,100,94,87,30.42,30.36,30.30,12,7,5,12,8,,0.00,5,Rain,278
2013-11-24,45,43,41,43,41,39,100,91,79,30.66,30.55,30.45,12,6,6,10,7,,0.00,7,,334
2013-11-25,46,43,40,39,38,36,93,85,66,30.77,30.72,30.66,19,7,6,12,5,,0.00,7,,279
2013-11-26,46,42,39,43,40,37,100,89,80,30.80,30.72,30.66,19,7,6,17,9,,0.00,6,,256
2013-11-27,48,44,39,45,43,39,100,92,85,30.68,30.63,30.60,19,7,6,14,10,,0.00,6,,268
2013-11-28,50,48,46,48,46,43,100,95,82,30.64,30.60,30.54,16,6,1,16,7,,0.02,6,Rain,272
2013-11-29,46,44,41,45,41,37,93,84,73,30.54,30.41,30.36,19,7,6,23,18,33,0.02,6,Rain,274
2013-11-30,48,42,35,43,40,34,100,91,81,30.52,30.47,30.42,16,7,6,17,11,,0.00,4,,273